createdAt,value
2018-12-29T00:00:42.385Z,30.60
2018-12-29T00:03:26.516Z,31.40
2018-12-29T00:06:11.578Z,31.97
2018-12-29T00:08:56.114Z,32.70
2018-12-29T00:11:39.682Z,31.73
2018-12-29T00:20:06.109Z,32.47
2018-12-29T00:22:50.400Z,30.83
2018-12-29T00:25:33.826Z,33.40
2018-12-29T00:28:23.415Z,32.67
2018-12-29T00:31:11.179Z,29.93
2018-12-29T00:33:54.506Z,31.93
2018-12-29T00:36:38.400Z,32.13
2018-12-29T00:39:27.232Z,30.90
2018-12-29T00:42:14.287Z,30.53
2018-12-29T00:48:07.487Z,32.80
2018-12-29T00:50:51.639Z,32.33
2018-12-29T00:53:36.877Z,33.57
2018-12-29T00:56:22.441Z,32.23
2018-12-29T00:59:10.314Z,32.63
2018-12-29T01:01:53.763Z,32.90
2018-12-29T01:04:39.365Z,32.13
2018-12-29T01:10:16.131Z,34.03
2018-12-29T01:13:02.740Z,33.00
2018-12-29T01:18:45.397Z,32.67
2018-12-29T01:21:29.272Z,33.17
2018-12-29T01:24:17.336Z,33.00
2018-12-29T01:27:04.683Z,32.63
2018-12-29T01:30:07.783Z,31.97
2018-12-29T01:33:11.024Z,32.87
2018-12-29T01:36:04.801Z,32.20
2018-12-29T01:38:48.266Z,32.30
2018-12-29T01:44:16.212Z,32.00
2018-12-29T01:47:00.185Z,33.33
2018-12-29T01:49:45.415Z,32.90
2018-12-29T01:52:19.016Z,32.40
2018-12-29T01:55:03.126Z,33.03
2018-12-29T01:57:47.950Z,31.40
2018-12-29T02:00:32.001Z,33.40
2018-12-29T02:03:17.834Z,33.10
2018-12-29T02:06:01.553Z,33.07
2018-12-29T02:08:50.278Z,33.27
2018-12-29T02:14:37.668Z,33.53
2018-12-29T02:17:21.368Z,33.50
2018-12-29T02:20:08.353Z,32.30
2018-12-29T02:22:52.036Z,32.63
2018-12-29T02:25:35.481Z,33.37
2018-12-29T02:28:18.598Z,33.00
2018-12-29T02:31:02.465Z,32.93
2018-12-29T02:33:46.623Z,33.10
2018-12-29T02:36:30.010Z,32.03
2018-12-29T02:39:13.479Z,32.20
2018-12-29T02:42:00.116Z,33.00
2018-12-29T02:44:43.686Z,31.77
2018-12-29T02:47:29.790Z,34.37
2018-12-29T02:50:17.601Z,34.03
2018-12-29T02:53:01.815Z,32.93
2018-12-29T02:55:47.746Z,32.67
2018-12-29T02:58:31.530Z,33.63
2018-12-29T03:01:15.106Z,32.10
2018-12-29T03:03:58.021Z,32.10
2018-12-29T03:06:41.497Z,33.87
2018-12-29T03:09:27.703Z,34.40
2018-12-29T03:12:11.007Z,34.33
2018-12-29T03:14:54.756Z,33.50
2018-12-29T03:17:36.696Z,33.90
2018-12-29T03:20:20.740Z,33.73
2018-12-29T03:23:04.535Z,32.67
2018-12-29T03:25:47.834Z,33.27
2018-12-29T03:28:31.514Z,33.07
2018-12-29T03:31:15.276Z,35.03
2018-12-29T03:33:59.621Z,33.33
2018-12-29T03:36:48.122Z,34.00
2018-12-29T03:39:37.153Z,36.13
2018-12-29T03:42:20.222Z,35.00
2018-12-29T03:45:04.192Z,34.17
2018-12-29T03:47:53.393Z,35.47
2018-12-29T03:50:40.985Z,34.70
2018-12-29T03:53:24.048Z,36.97
2018-12-29T03:56:09.110Z,36.03
2018-12-29T03:58:52.397Z,36.60
2018-12-29T04:01:36.152Z,35.33
2018-12-29T04:04:20.238Z,35.87
2018-12-29T04:07:03.570Z,35.03
2018-12-29T04:09:49.392Z,36.13
2018-12-29T04:12:34.733Z,38.33
2018-12-29T04:15:18.646Z,37.97
2018-12-29T04:18:01.716Z,36.53
2018-12-29T04:20:45.610Z,36.47
2018-12-29T04:23:30.735Z,36.30
2018-12-29T04:26:18.761Z,37.57
2018-12-29T04:29:02.633Z,35.73
2018-12-29T04:31:46.545Z,36.50
2018-12-29T04:34:30.235Z,35.27
2018-12-29T04:37:13.062Z,36.43
2018-12-29T04:42:53.593Z,36.00
2018-12-29T04:45:37.303Z,37.03
2018-12-29T04:51:21.615Z,35.93
2018-12-29T04:54:05.126Z,36.00
2018-12-29T04:59:40.288Z,36.73
2018-12-29T05:02:24.111Z,35.03
2018-12-29T05:05:08.097Z,36.67
2018-12-29T05:07:51.490Z,36.20
2018-12-29T05:10:40.519Z,36.13
2018-12-29T05:13:23.879Z,36.50
2018-12-29T05:16:12.814Z,36.73
2018-12-29T05:21:53.056Z,35.83
2018-12-29T05:24:41.719Z,36.33
2018-12-29T05:27:30.017Z,36.47
2018-12-29T05:30:17.568Z,35.77
2018-12-29T05:33:00.989Z,37.23
2018-12-29T05:35:44.203Z,37.07
2018-12-29T05:38:28.194Z,37.40
2018-12-29T05:41:11.318Z,38.70
2018-12-29T05:43:54.451Z,40.53
2018-12-29T05:46:40.342Z,37.10
2018-12-29T05:49:24.008Z,36.50
2018-12-29T05:52:07.438Z,37.17
2018-12-29T05:54:51.388Z,35.60
2018-12-29T05:57:35.026Z,35.60
2018-12-29T06:00:18.674Z,37.77
2018-12-29T06:03:01.906Z,36.70
2018-12-29T06:05:45.540Z,36.20
2018-12-29T06:08:29.238Z,38.87
2018-12-29T06:11:17.972Z,34.17
2018-12-29T06:14:02.562Z,39.07
2018-12-29T06:16:35.433Z,37.60
2018-12-29T06:19:18.284Z,37.77
2018-12-29T06:22:03.679Z,35.50
2018-12-29T06:24:47.716Z,36.77
2018-12-29T06:30:26.262Z,36.90
2018-12-29T06:33:09.800Z,37.30
2018-12-29T06:38:42.760Z,37.23
2018-12-29T06:44:25.055Z,36.43
2018-12-29T06:50:01.647Z,35.43
2018-12-29T06:52:45.959Z,36.33
2018-12-29T06:55:29.357Z,36.57
2018-12-29T06:58:13.527Z,38.70
2018-12-29T07:00:57.314Z,36.93
2018-12-29T07:03:41.273Z,36.30
2018-12-29T07:06:28.527Z,37.03
2018-12-29T07:09:15.599Z,36.67
2018-12-29T07:17:40.804Z,37.77
2018-12-29T07:23:09.810Z,37.93
2018-12-29T07:25:53.719Z,36.97
2018-12-29T07:28:37.602Z,38.30
2018-12-29T07:31:23.086Z,38.33
2018-12-29T07:34:08.341Z,38.77
2018-12-29T07:36:51.054Z,37.23
2018-12-29T07:39:36.584Z,38.37
2018-12-29T07:42:20.328Z,36.80
2018-12-29T07:45:06.173Z,39.30
2018-12-29T07:47:50.523Z,37.27
2018-12-29T07:50:34.338Z,37.70
2018-12-29T07:53:17.698Z,37.53
2018-12-29T08:01:53.354Z,37.27
2018-12-29T08:04:36.950Z,37.77
2018-12-29T08:07:23.576Z,38.47
2018-12-29T08:10:07.472Z,37.63
2018-12-29T08:12:55.613Z,35.57
2018-12-29T08:15:44.783Z,36.07
2018-12-29T08:18:29.236Z,38.53
2018-12-29T08:21:16.877Z,38.03
2018-12-29T08:24:00.566Z,37.57
2018-12-29T08:26:44.692Z,38.20
2018-12-29T08:29:28.415Z,36.40
2018-12-29T08:32:16.723Z,38.17
2018-12-29T08:35:00.175Z,37.83
2018-12-29T08:37:43.158Z,35.97
2018-12-29T08:40:32.169Z,35.07
2018-12-29T08:43:17.875Z,36.43
2018-12-29T08:46:03.877Z,35.30
2018-12-29T08:48:54.903Z,37.60
2018-12-29T08:57:19.557Z,36.80
2018-12-29T09:03:02.075Z,35.93
2018-12-29T09:05:45.815Z,36.77
2018-12-29T09:08:31.302Z,38.37
2018-12-29T09:14:38.765Z,37.27
2018-12-29T09:17:27.490Z,36.57
2018-12-29T09:20:12.804Z,38.10
2018-12-29T09:22:56.204Z,34.80
2018-12-29T09:25:39.862Z,36.60
2018-12-29T09:28:24.182Z,35.63
2018-12-29T09:31:09.581Z,34.40
2018-12-29T09:33:53.008Z,35.00
2018-12-29T09:36:36.744Z,35.00
2018-12-29T09:39:20.376Z,33.33
2018-12-29T09:42:06.819Z,34.63
2018-12-29T09:44:55.287Z,33.43
2018-12-29T09:47:42.732Z,34.57
2018-12-29T09:53:39.773Z,33.43
2018-12-29T09:56:24.984Z,34.70
2018-12-29T09:59:08.254Z,33.27
2018-12-29T10:01:56.631Z,32.33
2018-12-29T10:07:28.413Z,30.23
2018-12-29T10:13:04.770Z,32.20
2018-12-29T10:15:52.269Z,32.73
2018-12-29T10:18:40.007Z,32.10
2018-12-29T10:21:28.642Z,31.57
2018-12-29T10:24:33.431Z,31.30
2018-12-29T10:27:25.027Z,31.70
2018-12-29T10:30:08.365Z,31.57
2018-12-29T10:32:53.030Z,30.50
2018-12-29T10:35:39.661Z,32.77
2018-12-29T10:38:27.584Z,32.80
2018-12-29T10:41:11.425Z,32.07
2018-12-29T10:43:57.995Z,29.97
2018-12-29T10:46:41.843Z,31.17
2018-12-29T10:49:32.216Z,31.60
2018-12-29T10:52:17.534Z,31.07
2018-12-29T10:55:05.550Z,32.10
2018-12-29T10:57:54.096Z,33.43
2018-12-29T11:00:42.650Z,32.60
2018-12-29T11:03:26.672Z,34.43
2018-12-29T11:09:17.363Z,33.47
2018-12-29T11:12:00.626Z,34.17
2018-12-29T11:14:45.234Z,32.53
2018-12-29T11:17:31.563Z,32.90
2018-12-29T11:20:17.686Z,32.27
2018-12-29T11:26:03.695Z,32.27
2018-12-29T11:28:36.774Z,31.47
2018-12-29T11:31:28.323Z,31.93
2018-12-29T11:34:12.013Z,31.03
2018-12-29T11:36:59.996Z,30.57
2018-12-29T11:39:44.272Z,29.07
2018-12-29T11:42:29.326Z,28.50
2018-12-29T11:45:17.294Z,28.63
2018-12-29T11:48:06.030Z,28.70
2018-12-29T11:53:45.709Z,28.97
2018-12-29T11:56:30.838Z,29.03
2018-12-29T11:59:13.907Z,27.27
2018-12-29T12:01:57.233Z,25.63
2018-12-29T12:04:41.625Z,26.20
2018-12-29T12:07:30.501Z,26.17
2018-12-29T12:10:13.647Z,26.83
2018-12-29T12:12:56.881Z,26.13
2018-12-29T12:15:42.871Z,24.83
2018-12-29T12:18:26.174Z,25.63
2018-12-29T12:23:56.480Z,23.63
2018-12-29T12:26:40.756Z,22.50
2018-12-29T12:29:26.853Z,23.57
2018-12-29T12:32:18.305Z,24.30
2018-12-29T12:35:03.927Z,24.03
2018-12-29T12:37:52.130Z,24.00
2018-12-29T12:40:39.692Z,24.20
2018-12-29T12:43:25.618Z,23.43
2018-12-29T12:45:58.580Z,23.27
2018-12-29T12:48:52.220Z,24.13
2018-12-29T12:51:36.321Z,23.80
2018-12-29T12:54:19.979Z,23.40
2018-12-29T12:57:04.265Z,22.87
2018-12-29T12:59:50.184Z,22.50
2018-12-29T13:02:36.700Z,20.47
2018-12-29T13:05:21.710Z,21.20
2018-12-29T13:08:06.697Z,19.57
2018-12-29T13:13:38.551Z,23.23
2018-12-29T13:16:23.311Z,22.73
2018-12-29T13:19:12.109Z,23.20
2018-12-29T13:22:01.719Z,21.47
2018-12-29T13:24:48.022Z,21.77
2018-12-29T13:27:36.990Z,22.33
2018-12-29T13:30:25.808Z,21.13
2018-12-29T13:33:10.894Z,23.73
2018-12-29T13:38:44.609Z,23.73
2018-12-29T13:41:29.475Z,24.97
2018-12-29T13:44:16.776Z,23.73
2018-12-29T13:47:02.163Z,22.43
2018-12-29T13:52:34.080Z,22.07
2018-12-29T13:57:59.836Z,21.43
2018-12-29T14:03:43.860Z,17.67
2018-12-29T14:09:19.929Z,20.67
2018-12-29T14:12:04.121Z,22.37
2018-12-29T14:17:58.886Z,19.83
2018-12-29T14:20:42.199Z,18.97
2018-12-29T14:26:12.410Z,20.13
2018-12-29T14:31:58.092Z,20.00
2018-12-29T14:34:41.375Z,20.30
2018-12-29T14:37:28.783Z,19.60
2018-12-29T14:40:01.195Z,20.40
2018-12-29T14:42:45.276Z,20.70
2018-12-29T14:48:20.524Z,19.43
2018-12-29T14:51:04.443Z,19.73
2018-12-29T14:53:50.479Z,18.63
2018-12-29T14:56:34.345Z,18.97
2018-12-29T14:59:19.443Z,18.07
2018-12-29T15:02:02.811Z,19.47
2018-12-29T15:04:49.788Z,17.00
2018-12-29T15:07:35.060Z,16.93
2018-12-29T15:13:19.081Z,15.20
2018-12-29T15:16:05.453Z,17.23
2018-12-29T15:21:47.467Z,14.97
2018-12-29T15:24:39.792Z,16.70
2018-12-29T15:27:22.923Z,16.83
2018-12-29T15:30:09.164Z,17.47
2018-12-29T15:32:52.731Z,18.37
2018-12-29T15:35:38.320Z,19.23
2018-12-29T15:38:25.187Z,19.47
2018-12-29T15:41:15.380Z,24.23
2018-12-29T15:43:59.550Z,22.73
2018-12-29T15:46:43.806Z,22.70
2018-12-29T15:52:27.152Z,23.93
2018-12-29T15:55:12.615Z,24.03
2018-12-29T15:57:59.009Z,22.47
2018-12-29T16:03:32.369Z,22.97
2018-12-29T16:06:16.450Z,23.13
2018-12-29T16:09:00.881Z,22.73
2018-12-29T16:20:19.867Z,22.10
2018-12-29T16:22:56.127Z,22.13
2018-12-29T16:25:29.649Z,21.40
2018-12-29T16:28:05.099Z,21.17
2018-12-29T16:30:37.709Z,22.00
2018-12-29T16:33:10.984Z,22.50
2018-12-29T16:35:43.160Z,20.70
2018-12-29T16:38:16.491Z,19.50
2018-12-29T16:40:57.633Z,22.53
2018-12-29T16:43:27.967Z,22.87
2018-12-29T16:46:03.763Z,21.47
2018-12-29T16:48:36.059Z,20.87
2018-12-29T16:51:08.719Z,20.73
2018-12-29T16:53:42.186Z,20.40
2018-12-29T16:56:14.758Z,20.90
2018-12-29T16:58:49.362Z,19.50
2018-12-29T17:01:22.476Z,20.30
2018-12-29T17:03:55.369Z,20.57
2018-12-29T17:06:28.947Z,21.40
2018-12-29T17:09:01.995Z,20.50
2018-12-29T17:11:37.262Z,19.03
2018-12-29T17:14:09.720Z,22.20
2018-12-29T17:16:41.971Z,21.20
2018-12-29T17:19:14.810Z,20.40
2018-12-29T17:21:48.125Z,22.83
2018-12-29T17:24:20.670Z,21.60
2018-12-29T17:26:55.927Z,19.30
2018-12-29T17:29:28.984Z,22.63
2018-12-29T17:32:02.110Z,21.77
2018-12-29T17:34:34.710Z,22.07
2018-12-29T17:37:09.583Z,23.87
2018-12-29T17:39:43.623Z,22.93
2018-12-29T17:42:18.788Z,23.37
2018-12-29T17:44:51.061Z,23.47
2018-12-29T17:47:23.765Z,24.70
2018-12-29T17:49:58.894Z,23.93
2018-12-29T17:52:32.022Z,23.17
2018-12-29T17:55:04.889Z,22.13
2018-12-29T17:57:37.419Z,23.70
2018-12-29T18:00:10.031Z,23.13
2018-12-29T18:02:42.459Z,23.50
2018-12-29T18:05:15.279Z,24.33
2018-12-29T18:07:52.178Z,24.17
2018-12-29T18:10:24.751Z,23.97
2018-12-29T18:12:57.747Z,24.97
2018-12-29T18:15:30.792Z,25.13
2018-12-29T18:18:03.076Z,27.30
2018-12-29T18:20:41.104Z,25.77
2018-12-29T18:23:13.568Z,24.83
2018-12-29T18:25:45.654Z,26.67
2018-12-29T18:28:17.785Z,26.63
2018-12-29T18:30:51.669Z,28.87
2018-12-29T18:33:26.930Z,28.97
2018-12-29T18:36:01.417Z,29.57
2018-12-29T18:38:34.211Z,28.03
2018-12-29T18:41:07.031Z,28.90
2018-12-29T18:43:39.776Z,28.87
2018-12-29T18:46:11.976Z,29.80
2018-12-29T18:48:47.158Z,30.00
2018-12-29T18:51:19.413Z,28.70
2018-12-29T18:53:52.426Z,31.73
2018-12-29T18:56:26.835Z,30.87
2018-12-29T18:59:01.550Z,31.63
2018-12-29T19:01:33.918Z,29.57
2018-12-29T19:04:05.927Z,30.87
2018-12-29T19:06:38.253Z,32.83
2018-12-29T19:09:11.169Z,29.63
2018-12-29T19:11:44.219Z,32.83
2018-12-29T19:14:17.247Z,32.07
2018-12-29T19:16:49.483Z,32.00
2018-12-29T19:19:26.317Z,34.93
2018-12-29T19:21:59.344Z,33.17
2018-12-29T19:24:31.946Z,33.93
2018-12-29T19:27:06.113Z,35.27
2018-12-29T19:29:39.006Z,34.40
2018-12-29T19:32:15.399Z,34.80
2018-12-29T19:34:48.054Z,34.70
2018-12-29T19:37:20.968Z,34.97
2018-12-29T19:39:52.728Z,34.80
2018-12-29T19:42:24.875Z,34.57
2018-12-29T19:44:57.341Z,34.27
2018-12-29T19:47:34.696Z,33.27
2018-12-29T19:50:09.353Z,32.53
2018-12-29T19:52:43.160Z,35.70
2018-12-29T19:55:15.942Z,35.87
2018-12-29T19:57:51.470Z,30.97
2018-12-29T20:00:26.496Z,36.87
2018-12-29T20:02:59.131Z,32.67
2018-12-29T20:05:34.298Z,34.17
2018-12-29T20:08:06.856Z,33.83
2018-12-29T20:11:09.623Z,37.10
2018-12-29T20:13:43.189Z,34.93
2018-12-29T20:16:16.056Z,34.20
2018-12-29T20:18:48.852Z,38.03
2018-12-29T20:21:21.202Z,32.20
2018-12-29T20:23:57.546Z,35.97
2018-12-29T20:26:30.913Z,34.63
2018-12-29T20:29:11.988Z,32.47
2018-12-29T20:31:44.746Z,36.23
2018-12-29T20:34:40.284Z,26.43
2018-12-29T20:37:16.280Z,22.40
2018-12-29T20:39:51.792Z,21.53
2018-12-29T20:42:25.764Z,22.40
2018-12-29T20:44:58.500Z,20.47
2018-12-29T20:47:31.495Z,20.27
2018-12-29T20:50:11.330Z,21.17
2018-12-29T20:52:40.309Z,21.37
2018-12-29T20:55:14.848Z,19.97
2018-12-29T20:57:47.302Z,20.17
2018-12-29T21:00:21.510Z,20.10
2018-12-29T21:02:53.971Z,19.43
2018-12-29T21:05:26.286Z,17.00
2018-12-29T21:07:59.553Z,14.43
2018-12-29T21:10:50.815Z,14.37
2018-12-29T21:13:23.140Z,11.50
2018-12-29T21:15:55.170Z,13.00
2018-12-29T21:18:28.349Z,10.73
2018-12-29T21:21:00.772Z,8.03
2018-12-29T21:23:33.628Z,9.67
2018-12-29T21:26:10.620Z,8.90
2018-12-29T21:28:42.660Z,7.63
2018-12-29T21:31:14.768Z,8.07
2018-12-29T21:33:47.351Z,6.77
2018-12-29T21:36:19.877Z,6.20
2018-12-29T21:38:53.616Z,7.03
2018-12-29T21:41:27.925Z,6.50
2018-12-29T21:44:00.456Z,5.37
2018-12-29T21:46:34.508Z,5.77
2018-12-29T21:49:06.961Z,5.47
2018-12-29T21:51:38.922Z,5.10
2018-12-29T21:54:11.214Z,4.83
2018-12-29T21:56:43.963Z,4.13
2018-12-29T21:59:17.116Z,4.30
2018-12-29T22:01:51.528Z,3.97
2018-12-29T22:04:24.787Z,3.80
2018-12-29T22:06:57.649Z,3.53
2018-12-29T22:09:29.893Z,3.60
2018-12-29T22:12:03.054Z,3.30
2018-12-29T22:14:38.661Z,3.43
2018-12-29T22:17:12.189Z,3.60
2018-12-29T22:19:46.044Z,3.93
2018-12-29T22:22:19.864Z,3.30
2018-12-29T22:24:53.840Z,2.97
2018-12-29T22:27:41.359Z,3.27
2018-12-29T22:30:16.674Z,3.93
2018-12-29T22:32:49.165Z,2.93
2018-12-29T22:35:21.823Z,3.50
2018-12-29T22:37:56.352Z,4.00
2018-12-29T22:40:29.540Z,3.70
2018-12-29T22:43:03.408Z,3.03
2018-12-29T22:45:37.275Z,3.80
2018-12-29T22:48:10.943Z,3.77
2018-12-29T22:50:45.072Z,3.57
2018-12-29T22:53:46.172Z,4.17
2018-12-29T22:56:20.981Z,3.47
2018-12-29T22:58:55.589Z,3.20
2018-12-29T23:01:31.059Z,4.30
2018-12-29T23:04:10.365Z,3.33
2018-12-29T23:06:50.479Z,2.97
2018-12-29T23:09:25.438Z,4.27
2018-12-29T23:11:59.945Z,3.73
2018-12-29T23:14:33.074Z,4.30
2018-12-29T23:17:06.531Z,3.37
2018-12-29T23:19:41.193Z,4.30
2018-12-29T23:22:31.391Z,3.17
2018-12-29T23:25:06.594Z,3.27
2018-12-29T23:27:41.208Z,3.50
2018-12-29T23:30:39.336Z,4.20
2018-12-29T23:33:13.368Z,3.50
2018-12-29T23:35:54.109Z,3.27
2018-12-29T23:38:52.295Z,3.83
2018-12-29T23:41:25.407Z,3.80
2018-12-29T23:43:59.078Z,3.70
2018-12-29T23:46:33.634Z,3.60
2018-12-29T23:49:07.315Z,3.73
2018-12-29T23:51:41.866Z,4.27
2018-12-29T23:54:15.156Z,4.53
2018-12-29T23:56:49.648Z,3.10
2018-12-29T23:59:25.584Z,3.40
